PWSweather.com
Personal Weather Stations
Station Observations
KWABLAIN13
Ptl Weather, Blaine, WA

Ptl WeatherBlaine, WA

Lat: 48.997393, Lon: -122.748614

Elevation: 57

Station Type: Davis Advantage Pro 2

http://www.ptlnet.net

Latest ConditionsUpdated 12:30:00 PM PDT Saturday, Apr 25, 2015
Currently Today's Max Today's Min Today's Average
Temperature 50.3°F10.2°C 50.4°F10.2°C 40.6°F4.8°C 42.8°F6.0°C
Dew Point 44.4°F6.9°C 45.1°F7.3°C 39.3°F4.1°C 40.8°F4.9°C
Winds 8.0 mph SSW12.9 kmh SSW 8.0 mph SSW12.9 kmh SSW - 2.4 mph 3.9 kmh
Wind Gusts 12.0 mph19.3 kmh 12.0 mph19.3 kmh - -
Humidity 80% 96% 80% 92%
Pressure 29.99 in1015.6 mb 29.99 in1015.6 mb 29.86 in1011.2 mb -
Hour Temp Dew Point Humidity Winds Wind Gusts Pressure Precip Precip Rate Daily Precip Total
12:30 PM 50.3°F10.2°C 44.4°F6.9°C 80% 8.0 mph SSW12.9 kmh SSW 12.0 mph19.3 kmh 29.99 in1015.6 mb 0.00 in0.0 mm 0.00 in0.0 mm 0.04 in1.0 mm
12:25 PM 50.4°F10.2°C 45.1°F7.3°C 82% 6.0 mph SSW9.7 kmh SSW 12.0 mph19.3 kmh 29.99 in1015.6 mb 0.00 in0.0 mm 0.00 in0.0 mm 0.04 in1.0 mm
12:10 PM 49.5°F9.7°C 44.6°F7.0°C 83% 4.0 mph SW6.4 kmh SW 8.0 mph12.9 kmh 29.99 in1015.6 mb 0.00 in0.0 mm 0.00 in0.0 mm 0.04 in1.0 mm
12:05 PM 49.0°F9.4°C 44.7°F7.1°C 85% 6.0 mph S9.7 kmh S 7.0 mph11.3 kmh 29.99 in1015.6 mb 0.00 in0.0 mm 0.00 in0.0 mm 0.04 in1.0 mm
11:49 AM 47.0°F8.3°C 42.7°F5.9°C 85% 4.0 mph SSE6.4 kmh SSE 7.0 mph11.3 kmh 29.99 in1015.6 mb 0.00 in0.0 mm 0.00 in0.0 mm 0.04 in1.0 mm
11:44 AM 46.8°F8.2°C 42.8°F6.0°C 86% 7.0 mph ESE11.3 kmh ESE 7.0 mph11.3 kmh 29.99 in1015.6 mb 0.00 in0.0 mm 0.00 in0.0 mm 0.04 in1.0 mm
11:29 AM 46.5°F8.1°C 42.9°F6.1°C 87% 2.0 mph SSW3.2 kmh SSW 5.0 mph8.0 kmh 29.99 in1015.6 mb 0.00 in0.0 mm 0.00 in0.0 mm 0.04 in1.0 mm
11:25 AM 46.4°F8.0°C 42.5°F5.8°C 86% 4.0 mph SW6.4 kmh SW 4.0 mph6.4 kmh 29.99 in1015.6 mb 0.00 in0.0 mm 0.00 in0.0 mm 0.04 in1.0 mm
11:10 AM 45.1°F7.3°C 41.2°F5.1°C 86% 4.0 mph SW6.4 kmh SW 4.0 mph6.4 kmh 29.99 in1015.6 mb 0.00 in0.0 mm 0.00 in0.0 mm 0.04 in1.0 mm
11:05 AM 45.0°F7.2°C 41.1°F5.1°C 86% 3.0 mph S4.8 kmh S 6.0 mph9.7 kmh 29.98 in1015.2 mb 0.00 in0.0 mm 0.00 in0.0 mm 0.04 in1.0 mm
10:50 AM 44.7°F7.1°C 41.1°F5.1°C 87% 4.0 mph SSW6.4 kmh SSW 5.0 mph8.0 kmh 29.99 in1015.6 mb 0.00 in0.0 mm 0.00 in0.0 mm 0.04 in1.0 mm
10:45 AM 44.8°F7.1°C 41.2°F5.1°C 87% 1.0 mph S1.6 kmh S 9.0 mph14.5 kmh 29.98 in1015.2 mb 0.00 in0.0 mm 0.00 in0.0 mm 0.04 in1.0 mm
10:30 AM 45.0°F7.2°C 41.1°F5.1°C 86% 3.0 mph SE4.8 kmh SE 6.0 mph9.7 kmh 29.98 in1015.2 mb 0.00 in0.0 mm 0.00 in0.0 mm 0.04 in1.0 mm
10:24 AM 45.0°F7.2°C 41.1°F5.1°C 86% 1.0 mph S1.6 kmh S 6.0 mph9.7 kmh 29.98 in1015.2 mb 0.00 in0.0 mm 0.00 in0.0 mm 0.04 in1.0 mm
10:10 AM 44.5°F6.9°C 41.2°F5.1°C 88% 5.0 mph SE8.0 kmh SE 9.0 mph14.5 kmh 29.97 in1014.9 mb 0.00 in0.0 mm 0.00 in0.0 mm 0.04 in1.0 mm
10:05 AM 44.4°F6.9°C 41.1°F5.1°C 88% 4.0 mph SE6.4 kmh SE 9.0 mph14.5 kmh 29.97 in1014.9 mb 0.00 in0.0 mm 0.00 in0.0 mm 0.04 in1.0 mm
09:50 AM 44.1°F6.7°C 40.8°F4.9°C 88% 4.0 mph ESE6.4 kmh ESE 8.0 mph12.9 kmh 29.97 in1014.9 mb 0.00 in0.0 mm 0.00 in0.0 mm 0.04 in1.0 mm
09:45 AM 44.2°F6.8°C 40.9°F4.9°C 88% 3.0 mph ESE4.8 kmh ESE 7.0 mph11.3 kmh 29.97 in1014.9 mb 0.00 in0.0 mm 0.00 in0.0 mm 0.04 in1.0 mm
09:29 AM 44.3°F6.8°C 40.7°F4.8°C 87% 5.0 mph SE8.0 kmh SE 6.0 mph9.7 kmh 29.96 in1014.6 mb 0.00 in0.0 mm 0.00 in0.0 mm 0.04 in1.0 mm
09:25 AM 44.4°F6.9°C 40.8°F4.9°C 87% 3.0 mph SE4.8 kmh SE 6.0 mph9.7 kmh 29.96 in1014.6 mb 0.00 in0.0 mm 0.00 in0.0 mm 0.04 in1.0 mm
09:10 AM 44.9°F7.2°C 42.2°F5.7°C 90% 5.0 mph ESE8.0 kmh ESE 5.0 mph8.0 kmh 29.96 in1014.6 mb 0.00 in0.0 mm 0.00 in0.0 mm 0.04 in1.0 mm
09:05 AM 45.0°F7.2°C 42.5°F5.8°C 91% 7.0 mph E11.3 kmh E 7.0 mph11.3 kmh 29.96 in1014.6 mb 0.01 in0.3 mm 0.00 in0.0 mm 0.04 in1.0 mm
08:50 AM 44.7°F7.1°C 43.1°F6.2°C 94% 2.0 mph E3.2 kmh E 7.0 mph11.3 kmh 29.95 in1014.2 mb 0.02 in0.5 mm 0.00 in0.0 mm 0.04 in1.0 mm
08:45 AM 44.3°F6.8°C 43.0°F6.1°C 95% 2.0 mph ESE3.2 kmh ESE 7.0 mph11.3 kmh 29.95 in1014.2 mb 0.02 in0.5 mm 0.00 in0.0 mm 0.04 in1.0 mm
08:30 AM 43.4°F6.3°C 42.1°F5.6°C 95% 4.0 mph E6.4 kmh E 7.0 mph11.3 kmh 29.95 in1014.2 mb 0.03 in0.8 mm 0.00 in0.0 mm 0.04 in1.0 mm
08:25 AM 43.2°F6.2°C 41.9°F5.5°C 95% 2.0 mph E3.2 kmh E 7.0 mph11.3 kmh 29.94 in1013.9 mb 0.03 in0.8 mm 0.00 in0.0 mm 0.04 in1.0 mm
08:10 AM 42.8°F6.0°C 41.5°F5.3°C 95% 4.0 mph E6.4 kmh E 7.0 mph11.3 kmh 29.94 in1013.9 mb 0.03 in0.8 mm 0.00 in0.0 mm 0.04 in1.0 mm
08:05 AM 42.7°F5.9°C 41.4°F5.2°C 95% 2.0 mph E3.2 kmh E 7.0 mph11.3 kmh 29.94 in1013.9 mb 0.03 in0.8 mm 0.01 in0.3 mm 0.04 in1.0 mm
07:50 AM 42.5°F5.8°C 41.2°F5.1°C 95% Calm Calm 2.0 mph3.2 kmh 29.94 in1013.9 mb 0.02 in0.5 mm 0.00 in0.0 mm 0.03 in0.8 mm
07:45 AM 42.4°F5.8°C 41.1°F5.1°C 95% 1.0 mph NE1.6 kmh NE 2.0 mph3.2 kmh 29.94 in1013.9 mb 0.02 in0.5 mm 0.08 in2.0 mm 0.03 in0.8 mm
07:29 AM 42.1°F5.6°C 40.8°F4.9°C 95% 2.0 mph NE3.2 kmh NE 4.0 mph6.4 kmh 29.93 in1013.5 mb 0.00 in0.0 mm 0.00 in0.0 mm 0.01 in0.3 mm
07:25 AM 42.0°F5.6°C 40.7°F4.8°C 95% 2.0 mph ENE3.2 kmh ENE 4.0 mph6.4 kmh 29.93 in1013.5 mb 0.00 in0.0 mm 0.00 in0.0 mm 0.01 in0.3 mm
07:10 AM 42.0°F5.6°C 40.7°F4.8°C 95% 2.0 mph NE3.2 kmh NE 4.0 mph6.4 kmh 29.92 in1013.2 mb 0.00 in0.0 mm 0.00 in0.0 mm 0.01 in0.3 mm
07:04 AM 42.0°F5.6°C 40.7°F4.8°C 95% 1.0 mph NE1.6 kmh NE 4.0 mph6.4 kmh 29.92 in1013.2 mb 0.00 in0.0 mm 0.00 in0.0 mm 0.01 in0.3 mm
06:50 AM 41.6°F5.3°C 40.3°F4.6°C 95% 1.0 mph ENE1.6 kmh ENE 3.0 mph4.8 kmh 29.92 in1013.2 mb 0.01 in0.3 mm 0.00 in0.0 mm 0.01 in0.3 mm
06:45 AM 41.5°F5.3°C 39.9°F4.4°C 94% 1.0 mph ENE1.6 kmh ENE 3.0 mph4.8 kmh 29.92 in1013.2 mb 0.01 in0.3 mm 0.00 in0.0 mm 0.01 in0.3 mm
06:30 AM 41.6°F5.3°C 40.0°F4.4°C 94% Calm Calm 2.0 mph3.2 kmh 29.91 in1012.9 mb 0.01 in0.3 mm 0.00 in0.0 mm 0.01 in0.3 mm
06:25 AM 41.6°F5.3°C 40.0°F4.4°C 94% 1.0 mph ESE1.6 kmh ESE 2.0 mph3.2 kmh 29.91 in1012.9 mb 0.01 in0.3 mm 0.00 in0.0 mm 0.01 in0.3 mm
06:10 AM 41.6°F5.3°C 40.0°F4.4°C 94% Calm Calm -- 29.91 in1012.9 mb 0.01 in0.3 mm 0.00 in0.0 mm 0.01 in0.3 mm
06:05 AM 41.6°F5.3°C 39.7°F4.3°C 93% 1.0 mph ESE1.6 kmh ESE 2.0 mph3.2 kmh 29.91 in1012.9 mb 0.01 in0.3 mm 0.01 in0.3 mm 0.01 in0.3 mm
05:49 AM 41.6°F5.3°C 39.7°F4.3°C 93% 3.0 mph ESE4.8 kmh ESE 5.0 mph8.0 kmh 29.90 in1012.5 mb 0.00 in0.0 mm 0.00 in0.0 mm 0.00 in0.0 mm
05:44 AM 41.6°F5.3°C 39.7°F4.3°C 93% 1.0 mph ESE1.6 kmh ESE 5.0 mph8.0 kmh 29.90 in1012.5 mb 0.00 in0.0 mm 0.00 in0.0 mm 0.00 in0.0 mm
05:30 AM 41.6°F5.3°C 40.0°F4.4°C 94% 3.0 mph SE4.8 kmh SE 7.0 mph11.3 kmh 29.90 in1012.5 mb 0.00 in0.0 mm 0.00 in0.0 mm 0.00 in0.0 mm
05:25 AM 41.6°F5.3°C 40.0°F4.4°C 94% 3.0 mph ESE4.8 kmh ESE 7.0 mph11.3 kmh 29.90 in1012.5 mb 0.00 in0.0 mm 0.00 in0.0 mm 0.00 in0.0 mm
05:09 AM 41.5°F5.3°C 39.9°F4.4°C 94% 3.0 mph ESE4.8 kmh ESE 7.0 mph11.3 kmh 29.90 in1012.5 mb 0.00 in0.0 mm 0.00 in0.0 mm 0.00 in0.0 mm
05:05 AM 41.5°F5.3°C 40.2°F4.6°C 95% 5.0 mph SE8.0 kmh SE 7.0 mph11.3 kmh 29.90 in1012.5 mb 0.00 in0.0 mm 0.00 in0.0 mm 0.00 in0.0 mm
04:49 AM 41.5°F5.3°C 40.2°F4.6°C 95% 5.0 mph ESE8.0 kmh ESE 6.0 mph9.7 kmh 29.90 in1012.5 mb 0.00 in0.0 mm 0.00 in0.0 mm 0.00 in0.0 mm
04:44 AM 41.5°F5.3°C 40.2°F4.6°C 95% 4.0 mph ESE6.4 kmh ESE 6.0 mph9.7 kmh 29.90 in1012.5 mb 0.00 in0.0 mm 0.00 in0.0 mm 0.00 in0.0 mm
04:29 AM 41.4°F5.2°C 40.4°F4.7°C 96% 3.0 mph ESE4.8 kmh ESE 9.0 mph14.5 kmh 29.90 in1012.5 mb 0.00 in0.0 mm 0.00 in0.0 mm 0.00 in0.0 mm
04:25 AM 41.4°F5.2°C 40.4°F4.7°C 96% 4.0 mph ENE6.4 kmh ENE 7.0 mph11.3 kmh 29.89 in1012.2 mb 0.00 in0.0 mm 0.00 in0.0 mm 0.00 in0.0 mm
04:10 AM 41.4°F5.2°C 40.4°F4.7°C 96% 2.0 mph ESE3.2 kmh ESE 6.0 mph9.7 kmh 29.89 in1012.2 mb 0.00 in0.0 mm 0.00 in0.0 mm 0.00 in0.0 mm
04:05 AM 41.3°F5.2°C 40.3°F4.6°C 96% 3.0 mph ESE4.8 kmh ESE 6.0 mph9.7 kmh 29.89 in1012.2 mb 0.00 in0.0 mm 0.00 in0.0 mm 0.00 in0.0 mm
03:50 AM 41.2°F5.1°C 40.2°F4.6°C 96% 1.0 mph NE1.6 kmh NE 2.0 mph3.2 kmh 29.89 in1012.2 mb 0.00 in0.0 mm 0.00 in0.0 mm 0.00 in0.0 mm
03:45 AM 41.2°F5.1°C 40.2°F4.6°C 96% 1.0 mph NE1.6 kmh NE 1.0 mph1.6 kmh 29.89 in1012.2 mb 0.00 in0.0 mm 0.00 in0.0 mm 0.00 in0.0 mm
03:29 AM 41.1°F5.1°C 40.1°F4.5°C 96% Calm Calm 2.0 mph3.2 kmh 29.89 in1012.2 mb 0.00 in0.0 mm 0.00 in0.0 mm 0.00 in0.0 mm
03:25 AM 41.1°F5.1°C 40.1°F4.5°C 96% 1.0 mph NE1.6 kmh NE 2.0 mph3.2 kmh 29.89 in1012.2 mb 0.00 in0.0 mm 0.00 in0.0 mm 0.00 in0.0 mm
03:10 AM 41.1°F5.1°C 40.1°F4.5°C 96% 1.0 mph NE1.6 kmh NE 1.0 mph1.6 kmh 29.88 in1011.9 mb 0.00 in0.0 mm 0.00 in0.0 mm 0.00 in0.0 mm
03:05 AM 41.0°F5.0°C 40.0°F4.4°C 96% 2.0 mph NE3.2 kmh NE 2.0 mph3.2 kmh 29.88 in1011.9 mb 0.00 in0.0 mm 0.00 in0.0 mm 0.00 in0.0 mm
02:50 AM 40.9°F4.9°C 39.9°F4.4°C 96% 1.0 mph NE1.6 kmh NE 1.0 mph1.6 kmh 29.88 in1011.9 mb 0.00 in0.0 mm 0.00 in0.0 mm 0.00 in0.0 mm
02:44 AM 40.8°F4.9°C 39.8°F4.3°C 96% 1.0 mph NE1.6 kmh NE 2.0 mph3.2 kmh 29.88 in1011.9 mb 0.00 in0.0 mm 0.00 in0.0 mm 0.00 in0.0 mm
02:30 AM 40.6°F4.8°C 39.6°F4.2°C 96% 1.0 mph NE1.6 kmh NE 1.0 mph1.6 kmh 29.88 in1011.9 mb 0.00 in0.0 mm 0.00 in0.0 mm 0.00 in0.0 mm
02:25 AM 40.6°F4.8°C 39.6°F4.2°C 96% Calm Calm 1.0 mph1.6 kmh 29.88 in1011.9 mb 0.00 in0.0 mm 0.00 in0.0 mm 0.00 in0.0 mm
02:10 AM 40.6°F4.8°C 39.3°F4.1°C 95% 1.0 mph NE1.6 kmh NE 3.0 mph4.8 kmh 29.87 in1011.5 mb 0.00 in0.0 mm 0.00 in0.0 mm 0.00 in0.0 mm
02:04 AM 40.7°F4.8°C 39.4°F4.1°C 95% 1.0 mph NE1.6 kmh NE 2.0 mph3.2 kmh 29.87 in1011.5 mb 0.00 in0.0 mm 0.00 in0.0 mm 0.00 in0.0 mm
01:50 AM 40.9°F4.9°C 39.6°F4.2°C 95% 2.0 mph NE3.2 kmh NE 3.0 mph4.8 kmh 29.87 in1011.5 mb 0.00 in0.0 mm 0.00 in0.0 mm 0.00 in0.0 mm
01:45 AM 40.9°F4.9°C 39.6°F4.2°C 95% Calm Calm 2.0 mph3.2 kmh 29.87 in1011.5 mb 0.00 in0.0 mm 0.00 in0.0 mm 0.00 in0.0 mm
01:30 AM 40.9°F4.9°C 39.6°F4.2°C 95% 3.0 mph NE4.8 kmh NE 3.0 mph4.8 kmh 29.87 in1011.5 mb 0.00 in0.0 mm 0.00 in0.0 mm 0.00 in0.0 mm
01:25 AM 40.9°F4.9°C 39.6°F4.2°C 95% 1.0 mph NE1.6 kmh NE 2.0 mph3.2 kmh 29.87 in1011.5 mb 0.00 in0.0 mm 0.00 in0.0 mm 0.00 in0.0 mm
01:10 AM 41.0°F5.0°C 39.7°F4.3°C 95% Calm Calm 1.0 mph1.6 kmh 29.87 in1011.5 mb 0.00 in0.0 mm 0.00 in0.0 mm 0.00 in0.0 mm
01:05 AM 41.0°F5.0°C 39.7°F4.3°C 95% 1.0 mph NE1.6 kmh NE 2.0 mph3.2 kmh 29.87 in1011.5 mb 0.00 in0.0 mm 0.00 in0.0 mm 0.00 in0.0 mm
12:50 AM 41.0°F5.0°C 39.7°F4.3°C 95% 2.0 mph NE3.2 kmh NE 3.0 mph4.8 kmh 29.86 in1011.2 mb 0.00 in0.0 mm 0.00 in0.0 mm 0.00 in0.0 mm
12:45 AM 41.0°F5.0°C 39.7°F4.3°C 95% 1.0 mph NE1.6 kmh NE 3.0 mph4.8 kmh 29.86 in1011.2 mb 0.00 in0.0 mm 0.00 in0.0 mm 0.00 in0.0 mm
12:30 AM 41.1°F5.1°C 39.8°F4.3°C 95% 2.0 mph NE3.2 kmh NE 2.0 mph3.2 kmh 29.86 in1011.2 mb 0.00 in0.0 mm 0.00 in0.0 mm 0.00 in0.0 mm
12:25 AM 41.1°F5.1°C 39.8°F4.3°C 95% 1.0 mph NE1.6 kmh NE 2.0 mph3.2 kmh 29.86 in1011.2 mb 0.00 in0.0 mm 0.00 in0.0 mm 0.00 in0.0 mm
12:10 AM 41.3°F5.2°C 40.0°F4.4°C 95% Calm Calm 1.0 mph1.6 kmh 29.86 in1011.2 mb 0.00 in0.0 mm 0.00 in0.0 mm 0.00 in0.0 mm
12:04 AM 41.3°F5.2°C 39.7°F4.3°C 94% Calm Calm 3.0 mph4.8 kmh 29.86 in1011.2 mb 0.00 in0.0 mm 0.00 in0.0 mm 0.00 in0.0 mm